createdAt,value
2019-04-11T00:00:21.468Z,21.532593
2019-04-11T00:01:32.399Z,21.522522
2019-04-11T00:02:22.685Z,21.49231
2019-04-11T00:03:21.611Z,21.522522
2019-04-11T00:04:22.028Z,21.532593
2019-04-11T00:05:21.209Z,21.562805
2019-04-11T00:06:22.426Z,21.552734
2019-04-11T00:07:22.380Z,21.582947
2019-04-11T00:08:21.710Z,21.582947
2019-04-11T00:09:22.801Z,21.582947
2019-04-11T00:10:22.754Z,21.593018
2019-04-11T00:11:23.896Z,21.562805
2019-04-11T00:12:22.164Z,21.582947
2019-04-11T00:13:25.480Z,21.593018
2019-04-11T00:14:24.173Z,21.593018
2019-04-11T00:15:22.405Z,21.532593
2019-04-11T00:16:23.378Z,21.532593
2019-04-11T00:17:22.650Z,21.552734
2019-04-11T00:18:23.574Z,21.552734
2019-04-11T00:19:23.207Z,21.522522
2019-04-11T00:20:22.825Z,21.532593
2019-04-11T00:21:22.903Z,21.552734
2019-04-11T00:22:23.622Z,21.532593
2019-04-11T00:23:23.881Z,21.552734
2019-04-11T00:24:25.027Z,21.562805
2019-04-11T00:25:23.227Z,21.552734
2019-04-11T00:26:24.287Z,21.552734
2019-04-11T00:27:23.259Z,21.562805
2019-04-11T00:28:23.688Z,21.532593
2019-04-11T00:29:23.592Z,21.532593
2019-04-11T00:30:24.007Z,21.532593
2019-04-11T00:31:25.030Z,21.552734
2019-04-11T00:32:23.801Z,21.532593
2019-04-11T00:33:24.778Z,21.522522
2019-04-11T00:34:24.366Z,21.49231
2019-04-11T00:35:24.192Z,21.49231
2019-04-11T00:36:24.311Z,21.49231
2019-04-11T00:37:25.270Z,21.462097
2019-04-11T00:38:24.314Z,21.49231
2019-04-11T00:39:25.824Z,21.482239
2019-04-11T00:40:25.574Z,21.49231
2019-04-11T00:41:25.984Z,21.512451
2019-04-11T00:42:24.796Z,21.512451
2019-04-11T00:43:31.479Z,21.452026
2019-04-11T00:44:27.177Z,21.431885
2019-04-11T00:45:25.428Z,21.462097
2019-04-11T00:46:26.534Z,21.462097
2019-04-11T00:47:26.527Z,21.482239
2019-04-11T00:48:25.900Z,21.482239
2019-04-11T00:49:26.191Z,21.462097
2019-04-11T00:50:25.619Z,21.49231
2019-04-11T00:51:25.822Z,21.512451
2019-04-11T00:52:25.839Z,21.522522
2019-04-11T00:53:26.039Z,21.49231
2019-04-11T00:54:26.884Z,21.49231
2019-04-11T00:55:27.109Z,21.482239
2019-04-11T00:56:28.320Z,21.49231
2019-04-11T00:57:26.390Z,21.512451
2019-04-11T00:58:27.654Z,21.462097
2019-04-11T00:59:26.724Z,21.482239
2019-04-11T01:00:27.581Z,21.462097
2019-04-11T01:01:28.011Z,21.462097
2019-04-11T01:02:26.821Z,21.482239
2019-04-11T01:03:30.396Z,21.462097
2019-04-11T01:04:27.580Z,21.462097
2019-04-11T01:05:28.109Z,21.482239
2019-04-11T01:06:27.956Z,21.482239
2019-04-11T01:07:27.340Z,21.452026
2019-04-11T01:08:27.476Z,21.462097
2019-04-11T01:09:28.445Z,21.452026
2019-04-11T01:10:27.718Z,21.452026
2019-04-11T01:11:29.948Z,21.421814
2019-04-11T01:12:28.906Z,21.452026
2019-04-11T01:13:39.100Z,21.452026
2019-04-11T01:14:29.938Z,21.452026
2019-04-11T01:15:29.254Z,21.431885
2019-04-11T01:16:29.382Z,21.421814
2019-04-11T01:17:29.508Z,21.452026
2019-04-11T01:18:28.504Z,21.452026
2019-04-11T01:19:29.594Z,21.431885
2019-04-11T01:20:29.310Z,21.421814
2019-04-11T01:21:28.725Z,21.421814
2019-04-11T01:22:29.923Z,21.421814
2019-04-11T01:23:29.192Z,21.431885
2019-04-11T01:24:29.132Z,21.421814
2019-04-11T01:25:29.139Z,21.431885
2019-04-11T01:26:29.719Z,21.452026
2019-04-11T01:27:29.863Z,21.462097
2019-04-11T01:28:29.573Z,21.431885
2019-04-11T01:29:29.636Z,21.401672
2019-04-11T01:30:30.592Z,21.381531
2019-04-11T01:31:29.699Z,21.381531
2019-04-11T01:32:30.553Z,21.401672
2019-04-11T01:33:29.928Z,21.431885
2019-04-11T01:34:30.765Z,21.462097
2019-04-11T01:35:31.022Z,21.431885
2019-04-11T01:36:31.234Z,21.431885
2019-04-11T01:37:31.441Z,21.431885
2019-04-11T01:38:30.579Z,21.431885
2019-04-11T01:39:31.512Z,21.401672
2019-04-11T01:40:31.917Z,21.401672
2019-04-11T01:41:31.830Z,21.381531
2019-04-11T01:42:31.237Z,21.401672
2019-04-11T01:43:31.294Z,21.401672
2019-04-11T01:44:32.530Z,21.421814
2019-04-11T01:45:32.198Z,21.421814
2019-04-11T01:46:31.932Z,21.452026
2019-04-11T01:47:31.380Z,21.431885
2019-04-11T01:48:31.712Z,21.431885
2019-04-11T01:49:32.342Z,21.431885
2019-04-11T01:50:32.795Z,21.421814
2019-04-11T01:51:33.764Z,21.401672
2019-04-11T01:52:32.024Z,21.381531
2019-04-11T01:53:33.058Z,21.381531
2019-04-11T01:54:32.192Z,21.401672
2019-04-11T01:55:32.523Z,21.401672
2019-04-11T01:56:33.503Z,21.421814
2019-04-11T01:57:32.252Z,21.401672
2019-04-11T01:58:32.969Z,21.401672
2019-04-11T01:59:32.353Z,21.381531
2019-04-11T02:00:34.357Z,21.381531
2019-04-11T02:01:32.713Z,21.401672
2019-04-11T02:02:32.758Z,21.421814
2019-04-11T02:03:33.129Z,21.431885
2019-04-11T02:04:33.894Z,21.401672
2019-04-11T02:05:33.019Z,21.401672
2019-04-11T02:06:34.084Z,21.401672
2019-04-11T02:07:34.279Z,21.401672
2019-04-11T02:08:35.451Z,21.381531
2019-04-11T02:09:33.506Z,21.381531
2019-04-11T02:10:33.500Z,21.381531
2019-04-11T02:11:33.929Z,21.381531
2019-04-11T02:12:33.672Z,21.37146
2019-04-11T02:13:34.192Z,21.37146
2019-04-11T02:14:33.789Z,21.381531
2019-04-11T02:15:34.536Z,21.381531
2019-04-11T02:16:34.786Z,21.381531
2019-04-11T02:17:35.007Z,21.37146
2019-04-11T02:18:35.270Z,21.361389
2019-04-11T02:19:34.434Z,21.361389
2019-04-11T02:20:34.144Z,21.361389
2019-04-11T02:21:34.303Z,21.341248
2019-04-11T02:22:34.733Z,21.361389
2019-04-11T02:23:35.083Z,21.381531
2019-04-11T02:24:34.841Z,21.381531
2019-04-11T02:25:34.892Z,21.421814
2019-04-11T02:26:35.613Z,21.381531
2019-04-11T02:27:35.216Z,21.37146
2019-04-11T02:28:35.356Z,21.341248
2019-04-11T02:29:35.471Z,21.361389
2019-04-11T02:30:36.248Z,21.361389
2019-04-11T02:31:36.913Z,21.361389
2019-04-11T02:32:37.057Z,21.341248
2019-04-11T02:33:37.168Z,21.331177
2019-04-11T02:34:37.103Z,21.341248
2019-04-11T02:35:37.303Z,21.341248
2019-04-11T02:36:38.226Z,21.331177
2019-04-11T02:37:37.767Z,21.300964
2019-04-11T02:38:39.015Z,21.331177
2019-04-11T02:39:38.577Z,21.331177
2019-04-11T02:40:38.706Z,21.331177
2019-04-11T02:41:38.031Z,21.280823
2019-04-11T02:42:36.874Z,21.280823
2019-04-11T02:43:40.069Z,21.311035
2019-04-11T02:44:54.051Z,21.331177
2019-04-11T02:45:50.391Z,21.311035
2019-04-11T02:46:44.710Z,21.300964
2019-04-11T02:47:41.073Z,21.311035
2019-04-11T02:48:38.484Z,21.311035
2019-04-11T02:49:39.225Z,21.341248
2019-04-11T02:50:38.789Z,21.311035
2019-04-11T02:51:38.808Z,21.280823
2019-04-11T02:52:40.113Z,21.300964
2019-04-11T02:53:39.021Z,21.331177
2019-04-11T02:54:38.993Z,21.311035
2019-04-11T02:55:39.137Z,21.361389
2019-04-11T02:56:38.326Z,21.311035
2019-04-11T02:57:40.759Z,21.311035
2019-04-11T02:58:39.124Z,21.331177
2019-04-11T02:59:40.774Z,21.331177
2019-04-11T03:00:40.174Z,21.331177
2019-04-11T03:01:39.929Z,21.311035
2019-04-11T03:02:41.617Z,21.311035
2019-04-11T03:03:41.659Z,21.280823
2019-04-11T03:04:41.658Z,21.260681
2019-04-11T03:05:39.471Z,21.270752
2019-04-11T03:06:41.600Z,21.280823
2019-04-11T03:07:40.083Z,21.280823
2019-04-11T03:08:41.009Z,21.300964
2019-04-11T03:09:41.610Z,21.300964
2019-04-11T03:10:41.004Z,21.311035
2019-04-11T03:11:41.002Z,21.300964
2019-04-11T03:12:40.823Z,21.311035
2019-04-11T03:13:42.116Z,21.331177
2019-04-11T03:14:56.423Z,21.361389
2019-04-11T03:15:56.637Z,21.381531
2019-04-11T03:16:51.547Z,21.401672
2019-04-11T03:17:44.286Z,21.431885
2019-04-11T03:18:58.788Z,21.49231
2019-04-11T03:19:51.001Z,21.532593
2019-04-11T03:20:48.032Z,21.552734
2019-04-11T03:21:46.354Z,21.562805
2019-04-11T03:22:42.503Z,21.593018
2019-04-11T03:23:43.928Z,21.613159
2019-04-11T03:24:42.845Z,21.673584
2019-04-11T03:25:42.741Z,21.703796
2019-04-11T03:26:43.468Z,21.713867
2019-04-11T03:27:43.241Z,21.74408
2019-04-11T03:28:46.338Z,21.74408
2019-04-11T03:29:43.153Z,21.794434
2019-04-11T03:31:03.589Z,21.824646
2019-04-11T03:32:16.566Z,21.824646
2019-04-11T03:33:42.534Z,21.864929
2019-04-11T03:34:22.058Z,21.895142
2019-04-11T03:35:50.644Z,21.925354
2019-04-11T03:37:18.482Z,22.00592
2019-04-11T03:38:03.394Z,22.015991
2019-04-11T03:39:05.294Z,22.056274
2019-04-11T03:40:04.069Z,22.086487
2019-04-11T03:41:00.244Z,22.136841
2019-04-11T03:41:58.770Z,22.167053
2019-04-11T03:42:59.179Z,22.187195
2019-04-11T03:43:53.774Z,22.207336
2019-04-11T03:44:48.236Z,22.227478
2019-04-11T03:46:03.465Z,22.237549
2019-04-11T03:46:58.187Z,22.267761
2019-04-11T03:48:01.573Z,22.287903
2019-04-11T03:48:55.518Z,22.297974
2019-04-11T03:49:51.820Z,22.297974
2019-04-11T03:50:46.589Z,22.308044
2019-04-11T03:51:45.909Z,22.308044
2019-04-11T03:52:45.214Z,22.308044
2019-04-11T03:53:45.224Z,22.328186
2019-04-11T03:54:45.644Z,22.328186
2019-04-11T03:55:45.637Z,22.328186
2019-04-11T03:56:45.913Z,22.348328
2019-04-11T03:57:44.722Z,22.348328
2019-04-11T03:58:46.514Z,22.328186
2019-04-11T03:59:45.786Z,22.348328
2019-04-11T04:00:46.616Z,22.358398
2019-04-11T04:01:46.675Z,22.348328
2019-04-11T04:02:46.725Z,22.358398
2019-04-11T04:03:46.700Z,22.328186
2019-04-11T04:04:46.619Z,22.328186
2019-04-11T04:05:45.593Z,22.348328
2019-04-11T04:06:47.837Z,22.358398
2019-04-11T04:07:46.487Z,22.358398
2019-04-11T04:08:48.539Z,22.358398
2019-04-11T04:09:46.951Z,22.358398
2019-04-11T04:10:46.075Z,22.358398
2019-04-11T04:11:49.103Z,22.348328
2019-04-11T04:12:47.460Z,22.358398
2019-04-11T04:13:48.201Z,22.358398
2019-04-11T04:14:47.407Z,22.348328
2019-04-11T04:15:59.515Z,22.358398
2019-04-11T04:16:49.949Z,22.358398
2019-04-11T04:17:47.747Z,22.358398
2019-04-11T04:18:47.789Z,22.37854
2019-04-11T04:19:49.752Z,22.348328
2019-04-11T04:20:48.873Z,22.348328
2019-04-11T04:21:49.018Z,22.37854
2019-04-11T04:22:49.252Z,22.37854
2019-04-11T04:23:49.601Z,22.37854
2019-04-11T04:24:49.626Z,22.348328
2019-04-11T04:25:47.512Z,22.348328
2019-04-11T04:26:50.172Z,22.358398
2019-04-11T04:27:49.111Z,22.388611
2019-04-11T04:28:49.006Z,22.37854
2019-04-11T04:29:51.642Z,22.388611
2019-04-11T04:30:49.332Z,22.358398
2019-04-11T04:31:48.911Z,22.358398
2019-04-11T04:32:49.244Z,22.37854
2019-04-11T04:33:48.150Z,22.358398
2019-04-11T04:34:50.608Z,22.358398
2019-04-11T04:35:49.585Z,22.37854
2019-04-11T04:36:49.665Z,22.37854
2019-04-11T04:37:50.098Z,22.388611
2019-04-11T04:38:49.584Z,22.388611
2019-04-11T04:39:51.663Z,22.388611
2019-04-11T04:41:05.407Z,22.388611
2019-04-11T04:41:58.647Z,22.37854
2019-04-11T04:42:53.117Z,22.358398
2019-04-11T04:43:50.652Z,22.358398
2019-04-11T04:44:50.913Z,22.358398
2019-04-11T04:46:08.250Z,22.37854
2019-04-11T04:46:59.761Z,22.358398
2019-04-11T04:47:56.490Z,22.388611
2019-04-11T04:48:51.433Z,22.37854
2019-04-11T04:49:52.118Z,22.388611
2019-04-11T04:50:52.181Z,22.37854
2019-04-11T04:51:51.129Z,22.37854
2019-04-11T04:52:51.533Z,22.358398
2019-04-11T04:53:50.088Z,22.358398
2019-04-11T04:54:50.643Z,22.348328
2019-04-11T04:55:52.179Z,22.348328
2019-04-11T04:56:50.299Z,22.348328
2019-04-11T04:57:51.040Z,22.358398
2019-04-11T04:58:50.724Z,22.348328
2019-04-11T04:59:51.005Z,22.358398
2019-04-11T05:00:53.686Z,22.358398
2019-04-11T05:01:53.049Z,22.37854
2019-04-11T05:02:52.238Z,22.37854
2019-04-11T05:03:51.645Z,22.358398
2019-04-11T05:04:52.112Z,22.348328
2019-04-11T05:05:52.967Z,22.348328
2019-04-11T05:06:52.223Z,22.328186
2019-04-11T05:07:52.142Z,22.328186
2019-04-11T05:08:52.045Z,22.328186
2019-04-11T05:09:52.316Z,22.308044
2019-04-11T05:10:53.388Z,22.328186
2019-04-11T05:11:52.850Z,22.328186
2019-04-11T05:12:52.510Z,22.328186
2019-04-11T05:13:51.920Z,22.308044
2019-04-11T05:14:52.056Z,22.297974
2019-04-11T05:16:04.271Z,22.297974
2019-04-11T05:16:54.563Z,22.348328
2019-04-11T05:17:53.289Z,22.308044
2019-04-11T05:18:53.058Z,22.348328
2019-04-11T05:19:54.328Z,22.358398
2019-04-11T05:20:53.162Z,22.348328
2019-04-11T05:21:52.190Z,22.37854
2019-04-11T05:22:53.189Z,22.37854
2019-04-11T05:23:52.399Z,22.37854
2019-04-11T05:24:53.945Z,22.37854
2019-04-11T05:25:53.022Z,22.408752
2019-04-11T05:26:53.846Z,22.418823
2019-04-11T05:27:53.893Z,22.449036
2019-04-11T05:28:54.859Z,22.449036
2019-04-11T05:29:53.531Z,22.459106
2019-04-11T05:30:53.945Z,22.479248
2019-04-11T05:31:53.042Z,22.489319
2019-04-11T05:32:55.598Z,22.50946
2019-04-11T05:33:53.882Z,22.50946
2019-04-11T05:34:53.344Z,22.50946
2019-04-11T05:35:54.176Z,22.519531
2019-04-11T05:36:53.583Z,22.559814
2019-04-11T05:37:53.638Z,22.559814
2019-04-11T05:38:54.674Z,22.559814
2019-04-11T05:39:53.683Z,22.590027
2019-04-11T05:40:54.837Z,22.600098
2019-04-11T05:41:56.566Z,22.600098
2019-04-11T05:42:55.695Z,22.600098
2019-04-11T05:43:54.249Z,22.63031
2019-04-11T05:44:55.552Z,22.63031
2019-04-11T05:45:56.705Z,22.63031
2019-04-11T05:46:58.988Z,22.63031
2019-04-11T05:47:56.657Z,22.640381
2019-04-11T05:48:57.755Z,22.63031
2019-04-11T05:49:54.742Z,22.670593
2019-04-11T05:50:56.191Z,22.700806
2019-04-11T05:51:57.830Z,22.700806
2019-04-11T05:52:54.847Z,22.700806
2019-04-11T05:53:55.806Z,22.741089
2019-04-11T05:54:56.422Z,22.720947
2019-04-11T05:55:57.320Z,22.720947
2019-04-11T05:56:57.772Z,22.741089
2019-04-11T05:57:55.388Z,22.791443
2019-04-11T05:58:57.696Z,22.781372
2019-04-11T05:59:57.752Z,22.781372
2019-04-11T06:00:58.238Z,22.791443
2019-04-11T06:02:01.422Z,22.791443
2019-04-11T06:02:55.601Z,22.791443
2019-04-11T06:03:57.320Z,22.811584
2019-04-11T06:04:57.746Z,22.811584
2019-04-11T06:05:59.664Z,22.821655
2019-04-11T06:06:57.302Z,22.821655
2019-04-11T06:07:57.841Z,22.821655
2019-04-11T06:08:58.294Z,22.821655
2019-04-11T06:09:58.688Z,22.821655
2019-04-11T06:10:57.295Z,22.861938
2019-04-11T06:11:57.943Z,22.861938
2019-04-11T06:12:57.399Z,22.861938
2019-04-11T06:13:56.575Z,22.851868
2019-04-11T06:14:57.448Z,22.851868
2019-04-11T06:15:59.690Z,22.861938
2019-04-11T06:16:57.491Z,22.892151
2019-04-11T06:17:56.765Z,22.892151
2019-04-11T06:18:57.520Z,22.88208
2019-04-11T06:19:57.614Z,22.851868
2019-04-11T06:20:58.008Z,22.88208
2019-04-11T06:21:58.112Z,22.892151
2019-04-11T06:23:00.312Z,22.892151
2019-04-11T06:23:59.282Z,22.912292
2019-04-11T06:24:58.428Z,22.88208
2019-04-11T06:25:59.154Z,22.932434
2019-04-11T06:26:58.840Z,22.932434
2019-04-11T06:27:59.660Z,22.932434
2019-04-11T06:28:58.791Z,22.932434
2019-04-11T06:29:59.768Z,22.932434
2019-04-11T06:30:59.179Z,22.942505
2019-04-11T06:31:59.172Z,22.972717
2019-04-11T06:32:58.464Z,23.00293
2019-04-11T06:33:58.758Z,23.013
2019-04-11T06:34:59.704Z,23.013
2019-04-11T06:35:58.650Z,23.013
2019-04-11T06:37:25.852Z,23.013
2019-04-11T06:38:22.587Z,23.00293
2019-04-11T06:39:24.214Z,23.013
2019-04-11T06:42:25.860Z,23.013
2019-04-11T06:43:24.128Z,23.043213
2019-04-11T06:44:25.795Z,23.063354
2019-04-11T06:45:24.196Z,23.093567
2019-04-11T06:46:25.038Z,23.113708
2019-04-11T06:47:25.527Z,23.143921
2019-04-11T06:48:26.018Z,23.123779
2019-04-11T06:49:24.724Z,23.123779
2019-04-11T06:50:26.925Z,23.123779
2019-04-11T06:51:26.017Z,23.113708
2019-04-11T06:52:24.780Z,23.143921
2019-04-11T06:53:26.267Z,23.153992
2019-04-11T06:54:25.205Z,23.164062
2019-04-11T06:55:26.700Z,23.224487
2019-04-11T06:56:25.458Z,23.2547
2019-04-11T06:57:25.719Z,23.264771
2019-04-11T06:58:27.555Z,23.315125
2019-04-11T06:59:28.085Z,23.315125
2019-04-11T07:00:27.290Z,23.335266
2019-04-11T07:01:27.970Z,23.38562
2019-04-11T07:02:27.809Z,23.446045
2019-04-11T07:03:30.112Z,23.496399
2019-04-11T07:04:25.876Z,23.566895
2019-04-11T07:05:26.964Z,23.566895
2019-04-11T07:06:27.185Z,23.587036
2019-04-11T07:07:28.755Z,23.667603
2019-04-11T07:08:26.502Z,23.818665
2019-04-11T07:09:27.139Z,23.999939
2019-04-11T07:10:26.578Z,24.161072
2019-04-11T07:11:27.604Z,24.493408
2019-04-11T07:12:26.574Z,24.785461
2019-04-11T07:13:28.367Z,24.825745
2019-04-11T07:14:26.954Z,24.604187
2019-04-11T07:15:27.617Z,24.604187
2019-04-11T07:16:27.599Z,25.087585
2019-04-11T07:17:28.135Z,25.258789
2019-04-11T07:18:29.063Z,25.228577
2019-04-11T07:19:28.696Z,25.530701
2019-04-11T07:20:27.841Z,25.832825
2019-04-11T07:21:27.572Z,26.084595
2019-04-11T07:22:27.637Z,26.15509
2019-04-11T07:23:28.500Z,26.165161
2019-04-11T07:24:28.486Z,26.225586
2019-04-11T07:25:27.483Z,26.265869
2019-04-11T07:26:27.640Z,26.306152
2019-04-11T07:27:29.008Z,26.316223
2019-04-11T07:28:29.826Z,26.225586
2019-04-11T07:29:29.290Z,26.265869
2019-04-11T07:30:28.888Z,26.185303
2019-04-11T07:31:28.624Z,25.863037
2019-04-11T07:32:29.851Z,25.611267
2019-04-11T07:33:28.978Z,25.661621
2019-04-11T07:34:31.401Z,26.134949
2019-04-11T07:35:29.281Z,26.316223
2019-04-11T07:36:29.549Z,26.306152
2019-04-11T07:37:28.342Z,26.336365
2019-04-11T07:38:29.403Z,26.467285
2019-04-11T07:39:30.999Z,26.567993
2019-04-11T07:40:31.306Z,26.64856
2019-04-11T07:41:31.848Z,26.567993
2019-04-11T07:42:30.937Z,26.316223
2019-04-11T07:43:29.590Z,25.983887
2019-04-11T07:44:30.568Z,25.792542
2019-04-11T07:45:28.478Z,25.863037
2019-04-11T07:46:29.013Z,26.094666
2019-04-11T07:47:29.436Z,26.376648
2019-04-11T07:48:29.273Z,26.980896
2019-04-11T07:49:30.659Z,27.675781
2019-04-11T07:50:29.053Z,28.199463
2019-04-11T07:51:29.097Z,28.320312
2019-04-11T07:52:31.594Z,27.927551
2019-04-11T07:53:30.454Z,27.53479
2019-04-11T07:54:30.369Z,27.303162
2019-04-11T07:55:30.018Z,27.021179
2019-04-11T07:56:29.482Z,26.839905
2019-04-11T07:57:29.052Z,27.131958
2019-04-11T07:58:29.202Z,27.65564
2019-04-11T07:59:29.496Z,27.756348
2019-04-11T08:00:38.433Z,27.494507
2019-04-11T08:01:30.462Z,27.1521
2019-04-11T08:02:29.230Z,27.061462
2019-04-11T08:03:29.828Z,26.880188
2019-04-11T08:04:29.955Z,26.870117
2019-04-11T08:05:30.213Z,27.111816
2019-04-11T08:06:29.501Z,27.091675
2019-04-11T08:07:30.631Z,26.839905
2019-04-11T08:08:30.232Z,26.416931
2019-04-11T08:09:29.668Z,26.114807
2019-04-11T08:10:30.659Z,25.852966
2019-04-11T08:11:29.604Z,25.661621
2019-04-11T08:12:29.760Z,25.530701
2019-04-11T08:13:30.348Z,25.409851
2019-04-11T08:14:30.660Z,25.299072
2019-04-11T08:15:29.577Z,25.299072
2019-04-11T08:16:30.830Z,25.218506
2019-04-11T08:17:36.624Z,25.168152
2019-04-11T08:18:30.013Z,25.137939
2019-04-11T08:19:30.981Z,25.107727
2019-04-11T08:20:31.131Z,25.087585
2019-04-11T08:21:33.158Z,25.067444
2019-04-11T08:22:30.682Z,25.067444
2019-04-11T08:23:30.123Z,25.087585
2019-04-11T08:24:30.334Z,25.087585
2019-04-11T08:25:31.328Z,25.047302
2019-04-11T08:26:30.415Z,25.067444
2019-04-11T08:27:31.625Z,25.087585
2019-04-11T08:28:31.268Z,25.117798
2019-04-11T08:29:31.238Z,25.137939
2019-04-11T08:30:30.854Z,25.158081
2019-04-11T08:31:30.710Z,25.158081
2019-04-11T08:32:31.768Z,25.168152
2019-04-11T08:33:32.872Z,25.218506
2019-04-11T08:34:31.180Z,25.238647
2019-04-11T08:35:30.713Z,25.26886
2019-04-11T08:36:31.630Z,25.258789
2019-04-11T08:37:31.622Z,25.258789
2019-04-11T08:38:30.541Z,25.26886
2019-04-11T08:39:31.169Z,25.289001
2019-04-11T08:40:30.493Z,25.299072
2019-04-11T08:41:31.648Z,25.299072
2019-04-11T08:42:31.675Z,25.309143
2019-04-11T08:43:31.360Z,25.349426
2019-04-11T08:44:32.001Z,25.379639
2019-04-11T08:45:31.901Z,25.409851
2019-04-11T08:46:33.023Z,25.419922
2019-04-11T08:47:41.386Z,25.450134
2019-04-11T08:48:33.013Z,25.460205
2019-04-11T08:49:33.019Z,25.490417
2019-04-11T08:50:32.060Z,25.540771
2019-04-11T08:51:36.220Z,25.560913
2019-04-11T08:52:31.983Z,25.591125
2019-04-11T08:53:31.284Z,25.591125
2019-04-11T08:54:31.880Z,25.631409
2019-04-11T08:55:43.374Z,25.641479
2019-04-11T08:56:34.816Z,25.661621
2019-04-11T08:57:31.816Z,25.711975
2019-04-11T08:58:33.079Z,25.722046
2019-04-11T08:59:31.664Z,25.742188
2019-04-11T09:00:33.087Z,25.762329
2019-04-11T09:01:32.295Z,25.762329
2019-04-11T09:02:33.715Z,25.782471
2019-04-11T09:03:33.540Z,25.782471
2019-04-11T09:04:34.318Z,25.792542
2019-04-11T09:05:33.206Z,25.812683
2019-04-11T09:06:32.569Z,25.832825
2019-04-11T09:07:32.023Z,25.832825
2019-04-11T09:08:32.297Z,25.832825
2019-04-11T09:09:33.445Z,25.852966
2019-04-11T09:10:33.821Z,25.863037
2019-04-11T09:11:33.039Z,25.89325
2019-04-11T09:12:34.227Z,25.913391
2019-04-11T09:13:32.091Z,25.933533
2019-04-11T09:14:32.473Z,25.913391
2019-04-11T09:15:32.988Z,25.933533
2019-04-11T09:16:32.305Z,25.963745
2019-04-11T09:17:32.387Z,25.963745
2019-04-11T09:18:34.430Z,25.973816
2019-04-11T09:19:32.752Z,25.973816
2019-04-11T09:20:33.826Z,25.983887
2019-04-11T09:21:32.702Z,26.004028
2019-04-11T09:22:33.203Z,26.004028
2019-04-11T09:23:34.190Z,26.014099
2019-04-11T09:24:34.633Z,26.034241
2019-04-11T09:25:34.928Z,26.044312
2019-04-11T09:26:34.132Z,26.044312
2019-04-11T09:27:33.097Z,26.064453
2019-04-11T09:28:35.592Z,26.084595
2019-04-11T09:29:34.155Z,26.094666
2019-04-11T09:30:36.820Z,26.084595
2019-04-11T09:31:33.750Z,26.064453
2019-04-11T09:32:34.234Z,26.064453
2019-04-11T09:33:33.501Z,26.084595
2019-04-11T09:34:33.642Z,26.064453
2019-04-11T09:35:33.700Z,26.064453
2019-04-11T09:36:33.353Z,26.094666
2019-04-11T09:37:34.436Z,26.114807
2019-04-11T09:38:34.682Z,26.124878
2019-04-11T09:39:35.042Z,26.15509
2019-04-11T09:40:34.071Z,26.134949
2019-04-11T09:41:34.792Z,26.134949
2019-04-11T09:42:36.345Z,26.064453
2019-04-11T09:43:44.259Z,25.963745
2019-04-11T09:44:38.219Z,25.90332
2019-04-11T09:45:33.689Z,25.89325
2019-04-11T09:46:35.097Z,25.863037
2019-04-11T09:47:36.376Z,25.863037
2019-04-11T09:48:34.707Z,25.89325
2019-04-11T09:49:33.932Z,25.983887
2019-04-11T09:50:34.246Z,26.034241
2019-04-11T09:51:35.976Z,26.034241
2019-04-11T09:52:35.409Z,25.973816
2019-04-11T09:53:36.694Z,25.913391
2019-04-11T09:54:36.508Z,25.913391
2019-04-11T09:55:35.315Z,25.89325
2019-04-11T09:56:36.341Z,25.863037
2019-04-11T09:57:36.560Z,25.822754
2019-04-11T09:58:35.726Z,25.792542
2019-04-11T09:59:33.935Z,25.782471
2019-04-11T10:00:34.788Z,25.812683
2019-04-11T10:01:35.092Z,25.863037
2019-04-11T10:02:35.376Z,25.832825
2019-04-11T10:03:34.583Z,25.812683
2019-04-11T10:04:34.322Z,25.782471
2019-04-11T10:05:38.449Z,25.711975
2019-04-11T10:06:34.470Z,25.691833
2019-04-11T10:07:34.122Z,25.661621
2019-04-11T10:08:35.117Z,25.641479
2019-04-11T10:09:34.280Z,25.601196
2019-04-11T10:10:35.240Z,25.560913
2019-04-11T10:11:35.308Z,25.490417
2019-04-11T10:12:34.381Z,25.480347
2019-04-11T10:13:35.851Z,25.460205
2019-04-11T10:14:35.433Z,25.450134
2019-04-11T10:15:35.351Z,25.480347
2019-04-11T10:16:35.803Z,25.450134
2019-04-11T10:17:35.990Z,25.450134
2019-04-11T10:18:38.575Z,25.480347
2019-04-11T10:19:35.999Z,25.450134
2019-04-11T10:20:36.972Z,25.359497
2019-04-11T10:21:35.681Z,25.309143
2019-04-11T10:22:36.163Z,25.289001
2019-04-11T10:23:36.607Z,25.26886
2019-04-11T10:24:36.707Z,25.218506
2019-04-11T10:25:37.187Z,25.218506
2019-04-11T10:26:36.153Z,25.218506
2019-04-11T10:27:35.025Z,25.238647
2019-04-11T10:28:37.603Z,25.258789
2019-04-11T10:29:36.355Z,25.228577
2019-04-11T10:30:35.247Z,25.198364
2019-04-11T10:31:36.710Z,25.218506
2019-04-11T10:32:36.285Z,25.168152
2019-04-11T10:33:37.212Z,25.188293
2019-04-11T10:34:35.453Z,25.168152
2019-04-11T10:35:36.570Z,25.168152
2019-04-11T10:36:36.926Z,25.158081
2019-04-11T10:37:37.964Z,25.117798
2019-04-11T10:38:36.215Z,25.087585
2019-04-11T10:39:35.688Z,25.107727
2019-04-11T10:40:36.441Z,25.087585
2019-04-11T10:41:36.503Z,25.047302
2019-04-11T10:42:36.834Z,25.087585
2019-04-11T10:43:37.377Z,25.107727
2019-04-11T10:44:35.924Z,25.117798
2019-04-11T10:45:36.461Z,25.158081
2019-04-11T10:46:37.523Z,25.137939
2019-04-11T10:47:37.141Z,25.087585
2019-04-11T10:48:40.031Z,25.087585
2019-04-11T10:51:26.802Z,25.067444
2019-04-11T10:52:14.154Z,25.077515
2019-04-11T10:53:16.633Z,25.067444
2019-04-11T10:54:15.577Z,25.047302
2019-04-11T10:55:11.400Z,25.077515
2019-04-11T10:56:32.607Z,25.087585
2019-04-11T10:57:16.581Z,25.077515
2019-04-11T10:58:16.261Z,25.107727
2019-04-11T10:59:15.585Z,25.087585
2019-04-11T11:00:15.619Z,25.107727
2019-04-11T11:01:18.475Z,25.087585
2019-04-11T11:02:16.199Z,25.047302
2019-04-11T11:03:15.857Z,25.037231
2019-04-11T11:04:15.847Z,25.007019
2019-04-11T11:05:17.855Z,24.976807
2019-04-11T11:06:15.627Z,24.926453
2019-04-11T11:07:16.272Z,24.926453
2019-04-11T11:08:20.072Z,24.89624
2019-04-11T11:09:14.993Z,24.886169
2019-04-11T11:10:15.460Z,24.866028
2019-04-11T11:11:16.287Z,24.855957
2019-04-11T11:12:15.157Z,24.835815
2019-04-11T11:13:16.109Z,24.855957
2019-04-11T11:14:16.386Z,24.855957
2019-04-11T11:15:15.593Z,24.795532
2019-04-11T11:16:20.563Z,24.795532
2019-04-11T11:17:39.839Z,24.745178
2019-04-11T11:19:33.322Z,24.745178
2019-04-11T11:20:24.712Z,24.785461
2019-04-11T11:21:17.600Z,24.785461
2019-04-11T11:22:25.027Z,24.785461
2019-04-11T11:23:16.917Z,24.785461
2019-04-11T11:24:23.882Z,24.785461
2019-04-11T11:25:49.757Z,24.76532
2019-04-11T11:26:56.442Z,24.745178
2019-04-11T11:27:50.388Z,24.76532
2019-04-11T11:28:51.312Z,24.785461
2019-04-11T11:29:51.644Z,24.76532
2019-04-11T11:30:51.929Z,24.745178
2019-04-11T11:31:52.358Z,24.76532
2019-04-11T11:32:51.730Z,24.785461
2019-04-11T11:33:51.006Z,24.785461